createdAt,value
2022-10-19T00:02:30.639Z,2.67
2022-10-19T00:07:34.504Z,2.50
2022-10-19T00:12:37.759Z,1.08
2022-10-19T00:17:40.645Z,3.42
2022-10-19T00:22:43.268Z,2.33
2022-10-19T00:27:46.139Z,3.65
2022-10-19T00:32:49.355Z,3.63
2022-10-19T00:37:52.207Z,1.45
2022-10-19T00:42:56.467Z,1.30
2022-10-19T00:47:59.044Z,3.17
2022-10-19T00:53:01.615Z,4.13
2022-10-19T00:58:04.608Z,2.30
2022-10-19T01:03:08.717Z,2.05
2022-10-19T01:08:12.463Z,1.33
2022-10-19T01:13:26.588Z,1.60
2022-10-19T01:18:55.378Z,1.92
2022-10-19T01:24:27.499Z,1.73
2022-10-19T01:34:51.694Z,1.60
2022-10-19T01:40:20.338Z,1.40
2022-10-19T01:45:28.813Z,2.28
2022-10-19T01:50:41.095Z,1.77
2022-10-19T01:55:49.017Z,2.67
2022-10-19T02:00:54.198Z,4.00
2022-10-19T02:05:58.457Z,1.27
2022-10-19T02:11:02.228Z,2.03
2022-10-19T02:16:13.760Z,2.60
2022-10-19T02:21:16.726Z,2.83
2022-10-19T02:26:20.811Z,2.45
2022-10-19T02:31:24.869Z,1.50
2022-10-19T02:36:27.574Z,3.00
2022-10-19T02:41:30.077Z,2.78
2022-10-19T02:52:01.954Z,2.40
2022-10-19T02:57:19.910Z,1.30
2022-10-19T03:02:22.544Z,2.72
2022-10-19T03:07:25.654Z,3.08
2022-10-19T03:12:28.371Z,2.58
2022-10-19T03:17:31.108Z,2.65
2022-10-19T03:22:33.791Z,2.97
2022-10-19T03:27:36.558Z,3.90
2022-10-19T03:32:39.363Z,4.63
2022-10-19T03:37:42.141Z,2.25
2022-10-19T03:42:44.730Z,4.15
2022-10-19T03:47:50.724Z,2.25
2022-10-19T03:52:55.603Z,6.65
2022-10-19T03:57:58.279Z,2.63
2022-10-19T04:03:00.848Z,3.75
2022-10-19T04:08:03.493Z,2.95
2022-10-19T04:13:06.086Z,2.65
2022-10-19T04:18:08.685Z,2.17
2022-10-19T04:23:11.313Z,2.50
2022-10-19T04:28:13.959Z,3.88
2022-10-19T04:33:16.576Z,2.55
2022-10-19T04:38:19.142Z,4.38
2022-10-19T04:43:22.240Z,4.45
2022-10-19T04:48:24.857Z,3.25
2022-10-19T04:53:28.155Z,3.55
2022-10-19T04:58:30.689Z,6.00
2022-10-19T05:03:33.253Z,4.10
2022-10-19T05:08:37.765Z,4.63
2022-10-19T05:13:40.816Z,4.43
2022-10-19T05:18:56.355Z,3.30
2022-10-19T05:23:59.199Z,2.83
2022-10-19T05:29:02.779Z,5.50
2022-10-19T05:34:05.510Z,5.60
2022-10-19T05:39:14.916Z,4.93
2022-10-19T05:44:20.214Z,7.95
2022-10-19T05:49:23.201Z,6.72
2022-10-19T05:54:27.790Z,7.88
2022-10-19T05:59:31.361Z,7.65
2022-10-19T06:04:34.079Z,7.13
2022-10-19T06:09:37.264Z,10.63
2022-10-19T06:14:39.965Z,10.57
2022-10-19T06:19:42.707Z,19.58
2022-10-19T06:24:45.265Z,20.27
2022-10-19T06:29:48.244Z,19.13
2022-10-19T06:34:54.264Z,22.55
2022-10-19T06:40:01.467Z,20.80
2022-10-19T06:45:08.622Z,26.60
2022-10-19T06:50:11.273Z,23.67
2022-10-19T06:55:13.965Z,20.25
2022-10-19T07:00:17.226Z,19.38
2022-10-19T07:05:20.024Z,20.88
2022-10-19T07:10:22.655Z,18.75
2022-10-19T07:15:25.311Z,19.27
2022-10-19T07:20:28.057Z,22.40
2022-10-19T07:25:30.922Z,23.48
2022-10-19T07:30:33.621Z,19.30
2022-10-19T07:35:36.969Z,18.13
2022-10-19T07:40:43.559Z,24.45
2022-10-19T07:45:49.065Z,18.15
2022-10-19T07:50:51.670Z,18.75
2022-10-19T07:55:54.333Z,23.98
2022-10-19T08:01:01.553Z,21.42
2022-10-19T08:06:10.006Z,33.45
2022-10-19T08:11:24.534Z,25.95
2022-10-19T08:16:40.420Z,21.33
2022-10-19T08:21:45.724Z,30.92
2022-10-19T08:26:51.304Z,33.65
2022-10-19T08:31:54.874Z,29.02
2022-10-19T08:36:57.414Z,26.88
2022-10-19T08:42:15.276Z,26.88
2022-10-19T08:47:38.152Z,25.63
2022-10-19T08:52:43.396Z,23.30
2022-10-19T08:58:04.080Z,25.67
2022-10-19T09:03:37.811Z,22.05
2022-10-19T09:08:55.901Z,24.58
2022-10-19T09:14:08.356Z,22.45
2022-10-19T09:19:32.003Z,18.85
2022-10-19T09:24:53.429Z,20.80
2022-10-19T09:30:03.882Z,20.80
2022-10-19T09:35:18.697Z,20.63
2022-10-19T09:40:27.516Z,17.65
2022-10-19T09:45:51.098Z,12.05
2022-10-19T09:51:00.141Z,11.63
2022-10-19T09:56:08.328Z,13.57
2022-10-19T10:01:41.477Z,11.45
2022-10-19T10:06:48.412Z,11.70
2022-10-19T10:17:19.621Z,10.93
2022-10-19T10:22:33.577Z,11.80
2022-10-19T10:27:38.553Z,8.35
2022-10-19T10:32:49.336Z,12.13
2022-10-19T10:37:53.013Z,10.40
2022-10-19T10:43:02.538Z,9.15
2022-10-19T10:48:33.454Z,10.23
2022-10-19T10:53:43.541Z,11.88
2022-10-19T10:59:01.097Z,7.85
2022-10-19T11:04:09.107Z,10.25
2022-10-19T11:09:36.718Z,11.07
2022-10-19T11:14:44.979Z,5.45
2022-10-19T11:19:50.328Z,9.63
2022-10-19T11:25:15.178Z,8.35
2022-10-19T11:30:23.064Z,10.38
2022-10-19T11:35:53.199Z,14.48
2022-10-19T11:41:18.207Z,14.13
2022-10-19T11:46:46.153Z,13.02
2022-10-19T11:51:58.099Z,15.43
2022-10-19T11:57:11.478Z,12.85
2022-10-19T12:02:38.612Z,11.35
2022-10-19T12:13:52.597Z,12.70
2022-10-19T12:19:00.749Z,11.50
2022-10-19T12:24:11.538Z,12.40
2022-10-19T12:29:25.729Z,13.73
2022-10-19T12:34:37.448Z,13.30
2022-10-19T12:39:58.112Z,11.25
2022-10-19T12:45:25.420Z,13.70
2022-10-19T12:51:04.839Z,13.43
2022-10-19T12:56:19.785Z,14.02
2022-10-19T13:01:42.784Z,13.65
2022-10-19T13:06:50.184Z,14.60
2022-10-19T13:12:21.974Z,12.48
2022-10-19T13:17:50.699Z,15.93
2022-10-19T13:22:59.524Z,11.48
2022-10-19T13:28:07.923Z,15.05
2022-10-19T13:33:25.625Z,13.52
2022-10-19T13:38:42.219Z,11.52
2022-10-19T13:44:01.256Z,13.35
2022-10-19T13:49:22.118Z,14.57
2022-10-19T13:54:33.597Z,13.00
2022-10-19T13:59:56.395Z,17.42
2022-10-19T14:05:25.082Z,15.57
2022-10-19T14:10:32.831Z,14.35
2022-10-19T14:15:51.529Z,15.55
2022-10-19T14:21:03.494Z,17.75
2022-10-19T14:26:20.797Z,16.50
2022-10-19T14:31:29.041Z,20.35
2022-10-19T14:36:37.363Z,13.57
2022-10-19T14:41:39.940Z,12.88
2022-10-19T14:46:48.165Z,14.85
2022-10-19T14:52:02.397Z,15.23
2022-10-19T14:57:29.248Z,22.05
2022-10-19T15:02:44.420Z,19.73
2022-10-19T15:07:47.648Z,12.48
2022-10-19T15:12:52.020Z,16.13
2022-10-19T15:18:03.323Z,10.85
2022-10-19T15:23:45.686Z,9.07
2022-10-19T15:33:59.630Z,9.10
2022-10-19T15:39:18.405Z,10.25
2022-10-19T15:44:42.493Z,7.47
2022-10-19T15:49:45.798Z,12.30
2022-10-19T15:54:53.653Z,10.15
2022-10-19T15:59:57.693Z,11.80
2022-10-19T16:05:00.578Z,10.27
2022-10-19T16:10:03.669Z,9.07
2022-10-19T16:15:07.176Z,13.75
2022-10-19T16:20:10.901Z,8.40
2022-10-19T16:25:14.566Z,11.80
2022-10-19T16:30:17.197Z,4.90
2022-10-19T16:35:19.896Z,7.63
2022-10-19T16:40:24.594Z,8.90
2022-10-19T16:45:28.581Z,7.38
2022-10-19T16:50:31.200Z,8.98
2022-10-19T16:55:33.864Z,6.53
2022-10-19T17:00:36.456Z,8.55
2022-10-19T17:05:39.362Z,6.45
2022-10-19T17:10:41.927Z,11.25
2022-10-19T17:15:44.521Z,7.78
2022-10-19T17:20:47.060Z,7.57
2022-10-19T17:25:49.641Z,6.88
2022-10-19T17:30:52.904Z,10.48
2022-10-19T17:35:55.455Z,9.10
2022-10-19T17:41:02.866Z,8.85
2022-10-19T17:46:07.359Z,9.40
2022-10-19T17:51:18.819Z,8.65
2022-10-19T17:56:22.413Z,10.98
2022-10-19T18:01:26.472Z,6.60
2022-10-19T18:06:31.714Z,8.15
2022-10-19T18:11:38.749Z,8.65
2022-10-19T18:16:45.632Z,10.98
2022-10-19T18:21:49.231Z,8.43
2022-10-19T18:26:52.244Z,7.28
2022-10-19T18:31:55.404Z,6.10
2022-10-19T18:36:58.094Z,12.88
2022-10-19T18:42:00.770Z,6.53
2022-10-19T18:47:03.353Z,8.30
2022-10-19T18:52:06.079Z,6.88
2022-10-19T18:57:08.820Z,8.40
2022-10-19T19:02:17.262Z,7.18
2022-10-19T19:07:25.571Z,8.73
2022-10-19T19:12:28.185Z,6.38
2022-10-19T19:17:30.800Z,8.15
2022-10-19T19:22:33.875Z,10.27
2022-10-19T19:27:36.654Z,7.45
2022-10-19T19:32:39.266Z,11.38
2022-10-19T19:37:41.900Z,10.25
2022-10-19T19:42:44.630Z,9.45
2022-10-19T19:47:47.198Z,8.48
2022-10-19T19:52:50.918Z,8.48
2022-10-19T19:57:54.580Z,10.55
2022-10-19T20:02:58.760Z,10.57
2022-10-19T20:08:01.330Z,9.73
2022-10-19T20:18:11.494Z,7.53
2022-10-19T20:23:14.292Z,7.10
2022-10-19T20:28:17.369Z,8.40
2022-10-19T20:33:19.982Z,6.38
2022-10-19T20:38:22.641Z,8.15
2022-10-19T20:43:25.224Z,6.55
2022-10-19T20:48:27.768Z,11.73
2022-10-19T20:53:30.340Z,8.35
2022-10-19T20:58:33.765Z,7.05
2022-10-19T21:03:36.479Z,4.85
2022-10-19T21:08:39.109Z,3.10
2022-10-19T21:13:42.047Z,4.30
2022-10-19T21:18:46.533Z,4.63
2022-10-19T21:23:54.042Z,2.58
2022-10-19T21:28:57.250Z,3.20
2022-10-19T21:34:03.554Z,3.80
2022-10-19T21:39:06.554Z,4.40
2022-10-19T21:44:09.281Z,4.05
2022-10-19T21:49:12.387Z,4.45
2022-10-19T21:54:20.608Z,3.25
2022-10-19T21:59:23.232Z,5.25
2022-10-19T22:04:26.108Z,5.18
2022-10-19T22:09:29.008Z,3.83
2022-10-19T22:14:31.595Z,3.80
2022-10-19T22:19:34.226Z,5.15
2022-10-19T22:24:36.908Z,3.95
2022-10-19T22:29:39.540Z,3.72
2022-10-19T22:34:42.099Z,3.92
2022-10-19T22:39:44.732Z,3.15
2022-10-19T22:44:47.277Z,3.33
2022-10-19T22:49:49.923Z,2.63
2022-10-19T22:54:52.510Z,4.10
2022-10-19T22:59:55.085Z,5.70
2022-10-19T23:04:57.668Z,3.20
2022-10-19T23:10:00.271Z,2.88
2022-10-19T23:15:03.025Z,4.72
2022-10-19T23:20:06.400Z,3.40
2022-10-19T23:25:09.489Z,2.25
2022-10-19T23:30:12.107Z,3.20
2022-10-19T23:35:14.740Z,3.05
2022-10-19T23:40:17.381Z,2.95
2022-10-19T23:45:20.007Z,4.82
2022-10-19T23:50:22.633Z,2.58
2022-10-19T23:55:25.298Z,3.33
